Terminal Aerodrome Forecast
Issued by NWS

Home | Current Version | Previous Version | Text Only | Print | Product List | Glossary Off
Versions: 1 2 3 4 5 6 7 8 9 10 11 12 13 14 15 16 17 18 19 20 21

000
FTUS43 KICT 011738
TAFHUT
TAF
KHUT 011738Z 0118/0218 VRB04KT P6SM BKN015
      TEMPO 0118/0119 SCT015 BKN035
     FM011900 33005KT P6SM BKN060
     FM012300 01005KT P6SM SCT150
     FM021000 VRB03KT 4SM BR SCT009 BKN100
     FM021300 14010KT P6SM SCT040 BKN120=

USA.gov is the U.S. government's official web portal to all federal, state and local government web resources and services.